Flight Number: EUR2442 Duration: 6:00
Departure: Dakar Int'l Airport (GOOY) at 08:00 Distance: 2481 Nm
Arrival: Munich Int'l (EDDM) at 14:00 Equipment: B777

Weather Information
Dakar / Yoff, Senegal (GOOY) 14-44N 017-30W 24M May 24, 2018 - 05:00 PM EDT / 2018.05.24 2100 UTC
Wind: from the N (360 degrees) at 14 MPH (12 KT):0
Visibility: 4 mile(s):0 Temperature: 69 F (21 C) Dew Point: 66 F (19 C) Relative Humidity: 88% Pressure (altimeter): 29.88 in. Hg (1012 hPa)
ob: GOOY 242100Z 36012KT 8000 NSC 21/19 Q1012 cycle: 21
Sunrise: 06:42 Sunset: 19:31 (UTC)

Munchen, Germany (EDDM) 48-21N 011-47E May 24, 2018 - 05:20 PM EDT / 2018.05.24 2120 UTC
Wind: from the SSW (210 degrees) at 7 MPH (6 KT):0
Visibility: 5 mile(s):0
Sky conditions: mostly cloudy Weather: rain with thunder; Cumulonimbus clouds observed Temperature: 59 F (15 C) Dew Point: 55 F (13 C) Relative Humidity: 87% Pressure (altimeter): 30.09 in. Hg (1019 hPa)
ob: EDDM 242120Z 21006KT 9000 TSRA FEW010 SCT022CB BKN080 15/13 Q1019 RESHGR BECMG NSW cycle: 21
Sunrise: 03:26 Sunset: 18:53 (UTC)

TAF:2018/05/24 18:27 TAF EDDM 241700Z 2418/2524 VRB03KT 9999 SCT025 PROB40 TEMPO 2418/2422 30015G25KT 3000 TSRA SCT010 BKN020CB PROB40 TEMPO 2502/2506 0700 FG PROB30 TEMPO 2506/2508 3000 BR BKN005 BECMG 2508/2510 34005KT PROB30 TEMPO 2512/2517 TSRA SCT030CB BECMG 2513/2515 05007KT

Previous Pireps for this route
Date Aircraft Flight time Fuel used Landing rate On time
2016-03-10B77706.11109136-84Yes
2016-04-10B77705.05106121-224Yes
(pireps marked green are flown by you)

Route map